createdAt,value
2023-03-08T00:04:35.338Z,19.98
2023-03-08T00:09:38.920Z,25.17
2023-03-08T00:14:41.669Z,33.13
2023-03-08T00:19:44.880Z,26.67
2023-03-08T00:24:47.817Z,35.60
2023-03-08T00:29:50.453Z,33.50
2023-03-08T00:34:53.654Z,32.42
2023-03-08T00:39:56.428Z,28.25
2023-03-08T00:44:59.055Z,15.90
2023-03-08T00:50:01.682Z,20.02
2023-03-08T00:55:04.551Z,25.27
2023-03-08T01:00:11.276Z,20.75
2023-03-08T01:05:14.248Z,22.20
2023-03-08T01:10:17.316Z,38.45
2023-03-08T01:15:20.055Z,37.70
2023-03-08T01:20:22.763Z,32.97
2023-03-08T01:25:25.693Z,25.65
2023-03-08T01:30:28.560Z,23.88
2023-03-08T01:35:31.244Z,24.33
2023-03-08T01:40:33.963Z,22.90
2023-03-08T01:46:06.453Z,25.67
2023-03-08T01:51:13.640Z,31.30
2023-03-08T01:56:18.209Z,32.90
2023-03-08T02:01:21.519Z,33.25
2023-03-08T02:06:26.373Z,36.28
2023-03-08T02:11:29.320Z,29.25
2023-03-08T02:16:33.286Z,14.52
2023-03-08T02:21:36.623Z,15.80
2023-03-08T02:26:39.303Z,9.75
2023-03-08T02:31:42.077Z,18.58
2023-03-08T02:36:44.704Z,21.67
2023-03-08T02:41:47.710Z,14.90
2023-03-08T02:46:53.024Z,16.80
2023-03-08T02:51:55.760Z,16.23
2023-03-08T02:56:58.581Z,26.40
2023-03-08T03:02:01.388Z,11.93
2023-03-08T03:07:04.403Z,20.58
2023-03-08T03:12:08.951Z,26.20
2023-03-08T03:17:14.968Z,18.52
2023-03-08T03:22:17.935Z,24.38
2023-03-08T03:27:21.049Z,35.65
2023-03-08T03:32:24.205Z,36.05
2023-03-08T03:37:27.107Z,39.05
2023-03-08T03:42:32.087Z,29.70
2023-03-08T03:47:43.778Z,26.65
2023-03-08T03:52:47.213Z,17.15
2023-03-08T03:57:51.120Z,25.80
2023-03-08T04:03:03.542Z,16.00
2023-03-08T04:08:10.422Z,25.77
2023-03-08T04:13:18.136Z,28.17
2023-03-08T04:18:21.342Z,26.17
2023-03-08T04:23:24.123Z,23.35
2023-03-08T04:28:27.409Z,14.50
2023-03-08T04:33:30.307Z,13.82
2023-03-08T04:38:36.682Z,16.77
2023-03-08T04:43:48.723Z,14.55
2023-03-08T04:48:56.126Z,10.40
2023-03-08T04:54:02.103Z,13.52
2023-03-08T04:59:05.046Z,13.18
2023-03-08T05:04:09.463Z,13.43
2023-03-08T05:09:16.365Z,14.48
2023-03-08T05:19:25.883Z,16.33
2023-03-08T05:24:30.252Z,16.93
2023-03-08T05:29:37.561Z,13.77
2023-03-08T05:34:42.699Z,19.70
2023-03-08T05:39:53.208Z,18.40
2023-03-08T05:44:58.198Z,22.38
2023-03-08T05:50:06.373Z,15.38
2023-03-08T05:55:12.358Z,16.05
2023-03-08T06:00:16.206Z,19.88
2023-03-08T06:05:18.747Z,23.42
2023-03-08T06:10:23.127Z,21.98
2023-03-08T06:15:27.089Z,21.10
2023-03-08T06:20:31.604Z,23.53
2023-03-08T06:25:41.813Z,13.60
2023-03-08T06:30:46.888Z,9.13
2023-03-08T06:36:21.551Z,17.33
2023-03-08T06:41:25.997Z,11.27
2023-03-08T06:46:35.727Z,12.75
2023-03-08T06:51:38.600Z,11.85
2023-03-08T06:56:41.546Z,12.25
2023-03-08T07:01:45.598Z,8.18
2023-03-08T07:06:52.769Z,8.45
2023-03-08T07:11:55.757Z,11.20
2023-03-08T07:16:58.524Z,4.07
2023-03-08T07:22:01.282Z,7.40
2023-03-08T07:27:04.331Z,11.70
2023-03-08T07:32:07.730Z,12.77
2023-03-08T07:37:14.913Z,8.27
2023-03-08T07:42:17.852Z,10.88
2023-03-08T07:47:26.093Z,8.65
2023-03-08T07:52:29.982Z,8.25
2023-03-08T07:57:32.586Z,8.57
2023-03-08T08:02:36.316Z,8.98
2023-03-08T08:07:39.166Z,8.90
2023-03-08T08:12:41.820Z,13.10
2023-03-08T08:17:44.579Z,7.85
2023-03-08T08:22:47.352Z,9.18
2023-03-08T08:27:51.231Z,9.65
2023-03-08T08:32:53.991Z,9.60
2023-03-08T08:37:56.629Z,7.75
2023-03-08T08:42:59.371Z,9.05
2023-03-08T08:48:02.019Z,7.10
2023-03-08T08:53:08.101Z,13.63
2023-03-08T08:58:14.408Z,8.05
2023-03-08T09:03:17.163Z,7.15
2023-03-08T09:08:19.844Z,6.28
2023-03-08T09:13:22.553Z,7.25
2023-03-08T09:18:28.243Z,11.82
2023-03-08T09:23:30.980Z,9.15
2023-03-08T09:28:34.336Z,8.27
2023-03-08T09:33:37.248Z,6.07
2023-03-08T09:38:40.161Z,5.70
2023-03-08T09:43:49.061Z,10.95
2023-03-08T09:48:53.281Z,12.95
2023-03-08T09:54:00.250Z,10.83
2023-03-08T09:59:12.307Z,10.65
2023-03-08T10:04:46.466Z,15.57
2023-03-08T10:10:27.547Z,14.10
2023-03-08T10:15:32.360Z,17.92
2023-03-08T10:20:37.738Z,16.20
2023-03-08T10:25:40.753Z,16.30
2023-03-08T10:30:48.516Z,15.05
2023-03-08T10:36:13.038Z,14.23
2023-03-08T10:41:17.583Z,11.57
2023-03-08T10:46:25.519Z,13.73
2023-03-08T10:51:29.950Z,12.95
2023-03-08T10:56:52.222Z,11.43
2023-03-08T11:01:59.462Z,11.82
2023-03-08T11:07:11.893Z,10.75
2023-03-08T11:12:32.607Z,13.02
2023-03-08T11:17:46.691Z,11.75
2023-03-08T11:23:15.391Z,12.65
2023-03-08T11:28:59.620Z,11.65
2023-03-08T11:34:40.548Z,10.05
2023-03-08T11:40:19.111Z,12.75
2023-03-08T11:45:34.136Z,13.77
2023-03-08T11:50:39.654Z,12.55
2023-03-08T11:55:55.485Z,7.00
2023-03-08T12:01:02.830Z,8.27
2023-03-08T12:06:26.716Z,8.02
2023-03-08T12:11:41.936Z,8.48
2023-03-08T12:16:56.335Z,9.07
2023-03-08T12:22:05.081Z,6.75
2023-03-08T12:27:18.902Z,8.25
2023-03-08T12:32:22.493Z,7.63
2023-03-08T12:37:28.089Z,6.43
2023-03-08T12:42:33.041Z,7.82
2023-03-08T12:47:35.885Z,8.82
2023-03-08T12:52:38.900Z,8.10
2023-03-08T12:57:48.881Z,8.38
2023-03-08T13:03:14.658Z,7.97
2023-03-08T13:08:19.201Z,8.68
2023-03-08T13:14:02.402Z,6.85
2023-03-08T13:19:27.002Z,9.35
2023-03-08T13:30:13.129Z,9.35
2023-03-08T13:35:17.193Z,7.38
2023-03-08T13:40:21.424Z,11.03
2023-03-08T13:45:24.575Z,12.03
2023-03-08T13:50:33.030Z,12.35
2023-03-08T13:55:39.841Z,10.32
2023-03-08T14:00:42.792Z,9.25
2023-03-08T14:05:47.948Z,8.43
2023-03-08T14:10:59.889Z,9.90
2023-03-08T14:16:35.983Z,7.82
2023-03-08T14:22:03.097Z,7.82
2023-03-08T14:27:17.775Z,9.20
2023-03-08T14:32:32.050Z,8.65
2023-03-08T14:37:36.139Z,11.77
2023-03-08T14:42:55.268Z,11.93
2023-03-08T14:48:01.288Z,12.57
2023-03-08T14:53:04.761Z,7.07
2023-03-08T14:58:15.041Z,6.10
2023-03-08T15:03:17.694Z,12.73
2023-03-08T15:08:21.343Z,18.40
2023-03-08T15:13:25.145Z,15.10
2023-03-08T15:18:27.966Z,13.70
2023-03-08T15:23:33.337Z,7.45
2023-03-08T15:28:35.982Z,8.27
2023-03-08T15:33:38.682Z,7.80
2023-03-08T15:38:41.614Z,8.60
2023-03-08T15:43:44.675Z,9.63
2023-03-08T15:48:47.344Z,7.05
2023-03-08T15:53:50.383Z,9.98
2023-03-08T15:58:54.157Z,8.52
2023-03-08T16:03:57.425Z,10.75
2023-03-08T16:09:00.189Z,9.30
2023-03-08T16:14:02.892Z,8.85
2023-03-08T16:19:05.641Z,11.55
2023-03-08T16:24:09.208Z,10.77
2023-03-08T16:29:11.905Z,7.05
2023-03-08T16:34:22.563Z,12.23
2023-03-08T16:39:26.381Z,8.63
2023-03-08T16:44:30.844Z,4.88
2023-03-08T16:49:33.479Z,11.30
2023-03-08T16:54:36.344Z,9.10
2023-03-08T16:59:41.201Z,9.43
2023-03-08T17:04:44.555Z,12.95
2023-03-08T17:09:47.403Z,6.93
2023-03-08T17:14:50.346Z,6.32
2023-03-08T17:19:54.375Z,4.72
2023-03-08T17:24:57.110Z,6.43
2023-03-08T17:30:01.200Z,8.98
2023-03-08T17:35:04.233Z,6.78
2023-03-08T17:40:08.129Z,9.68
2023-03-08T17:45:11.629Z,7.23
2023-03-08T17:50:14.545Z,12.73
2023-03-08T17:55:17.795Z,11.30
2023-03-08T18:00:20.712Z,11.48
2023-03-08T18:05:23.396Z,6.05
2023-03-08T18:10:26.259Z,13.50
2023-03-08T18:15:29.130Z,7.88
2023-03-08T18:20:31.783Z,10.48
2023-03-08T18:25:35.008Z,6.35
2023-03-08T18:30:38.637Z,9.32
2023-03-08T18:35:41.397Z,10.63
2023-03-08T18:40:44.209Z,7.05
2023-03-08T18:45:59.499Z,7.63
2023-03-08T18:51:02.251Z,7.25
2023-03-08T18:56:05.173Z,5.38
2023-03-08T19:01:13.848Z,5.53
2023-03-08T19:06:16.674Z,4.60
2023-03-08T19:11:24.901Z,5.93
2023-03-08T19:16:32.934Z,8.95
2023-03-08T19:21:38.618Z,4.43
2023-03-08T19:26:43.443Z,5.43
2023-03-08T19:31:51.857Z,3.15
2023-03-08T19:36:55.106Z,7.38
2023-03-08T19:42:00.339Z,5.30
2023-03-08T19:47:04.890Z,4.20
2023-03-08T19:52:07.969Z,5.35
2023-03-08T19:57:10.924Z,3.53
2023-03-08T20:02:14.105Z,3.72
2023-03-08T20:07:19.687Z,8.52
2023-03-08T20:12:22.450Z,3.00
2023-03-08T20:17:25.153Z,3.65
2023-03-08T20:22:27.803Z,2.67
2023-03-08T20:27:30.579Z,6.20
2023-03-08T20:32:33.224Z,5.07
2023-03-08T20:37:35.865Z,2.15
2023-03-08T20:42:38.573Z,4.28
2023-03-08T20:47:41.294Z,5.32
2023-03-08T20:52:43.924Z,4.53
2023-03-08T20:57:46.587Z,8.07
2023-03-08T21:02:49.341Z,3.38
2023-03-08T21:07:52.035Z,7.78
2023-03-08T21:12:54.750Z,3.50
2023-03-08T21:17:57.432Z,4.03
2023-03-08T21:23:00.017Z,4.13
2023-03-08T21:28:02.693Z,5.32
2023-03-08T21:33:05.416Z,4.40
2023-03-08T21:38:08.629Z,3.60
2023-03-08T21:43:11.364Z,5.38
2023-03-08T21:48:14.047Z,3.17
2023-03-08T21:53:16.786Z,2.75
2023-03-08T21:58:19.709Z,9.07
2023-03-08T22:03:22.388Z,5.05
2023-03-08T22:08:25.563Z,2.90
2023-03-08T22:13:28.216Z,4.13
2023-03-08T22:18:32.084Z,5.30
2023-03-08T22:23:34.793Z,5.50
2023-03-08T22:28:38.362Z,3.47
2023-03-08T22:33:42.378Z,5.10
2023-03-08T22:38:45.110Z,7.78
2023-03-08T22:43:48.528Z,1.70
2023-03-08T22:48:52.939Z,4.10
2023-03-08T22:53:56.478Z,7.38
2023-03-08T22:58:59.982Z,6.57
2023-03-08T23:04:04.109Z,6.50
2023-03-08T23:09:08.457Z,4.93
2023-03-08T23:14:11.724Z,7.60
2023-03-08T23:19:17.156Z,9.20
2023-03-08T23:24:20.582Z,4.80
2023-03-08T23:29:23.256Z,2.65
2023-03-08T23:34:26.033Z,5.60
2023-03-08T23:39:28.648Z,5.00
2023-03-08T23:44:31.300Z,12.13
2023-03-08T23:49:34.300Z,6.22
2023-03-08T23:54:37.012Z,11.90
2023-03-08T23:59:39.687Z,3.58
